Time;durP1;ratioP1;P1;durP2;ratioP2;P2;SDS_P1;SDS_P2;PMS_P1;PMS_P2;Temp;Humidity;BMP_temperature;BMP_pressure;BME280_temperature;BME280_humidity;BME280_pressure;Samples;Min_cycle;Max_cycle;Signal;HPM_P1;HPM_P2
2021/10/21 00:00:20;;;;;;;13.80;11.10;;;;;;;13.62;54.74;99548.84;1648346;87;21026;-74
2021/10/21 00:02:47;;;;;;;13.55;10.65;;;;;;;13.59;54.76;99555.59;1651071;85;21074;-75
2021/10/21 00:05:14;;;;;;;18.62;12.73;;;;;;;13.58;54.84;99555.31;1619889;87;21043;-73
2021/10/21 00:07:41;;;;;;;14.73;11.33;;;;;;;13.57;54.94;99540.74;1619801;87;21082;-75
2021/10/21 00:10:09;;;;;;;23.30;10.88;;;;;;;13.52;55.04;99549.09;1647969;87;21295;-77
2021/10/21 00:12:35;;;;;;;16.80;11.28;;;;;;;13.50;55.12;99535.61;1648264;87;21055;-77
2021/10/21 00:15:03;;;;;;;14.28;11.35;;;;;;;13.49;55.22;99540.73;1607418;86;21041;-74
2021/10/21 00:17:29;;;;;;;21.30;11.50;;;;;;;13.46;55.30;99539.94;1627700;87;21006;-74
2021/10/21 00:19:57;;;;;;;16.30;11.65;;;;;;;13.42;55.45;99536.17;1648288;87;21070;-74
2021/10/21 00:22:23;;;;;;;18.02;11.18;;;;;;;13.37;55.54;99522.66;1612916;87;21746;-76
2021/10/21 00:24:49;;;;;;;14.43;11.50;;;;;;;13.35;55.67;99535.08;1673971;84;21009;-73
2021/10/21 00:27:16;;;;;;;15.25;11.25;;;;;;;13.32;55.79;99519.97;1682895;84;21039;-72
2021/10/21 00:29:43;;;;;;;17.02;11.83;;;;;;;13.29;55.84;99521.84;1677805;84;21047;-72
2021/10/21 00:32:10;;;;;;;17.02;10.38;;;;;;;13.26;55.98;99519.69;1665200;84;21007;-73
2021/10/21 00:34:36;;;;;;;17.57;11.78;;;;;;;13.24;56.08;99511.85;1695742;84;21085;-71
2021/10/21 00:37:02;;;;;;;17.92;11.63;;;;;;;13.21;56.18;99510.24;1678319;84;20982;-70
2021/10/21 00:39:29;;;;;;;11.73;10.08;;;;;;;13.18;56.29;99506.20;1627836;87;21587;-72
2021/10/21 00:41:55;;;;;;;15.93;11.95;;;;;;;13.13;56.57;99507.56;1641033;86;21134;-70
2021/10/21 00:44:22;;;;;;;17.55;12.63;;;;;;;13.07;56.65;99493.75;1627259;87;20959;-71
2021/10/21 00:46:48;;;;;;;14.63;11.35;;;;;;;13.05;56.76;99496.72;1616955;88;21133;-71
2021/10/21 00:49:14;;;;;;;24.50;12.85;;;;;;;13.02;56.87;99490.52;1634395;87;21086;-73
2021/10/21 00:51:41;;;;;;;16.73;12.37;;;;;;;12.97;57.04;99490.52;1622205;87;21054;-73
2021/10/21 00:54:08;;;;;;;18.32;13.05;;;;;;;12.93;57.21;99482.69;1645976;86;21088;-75
2021/10/21 00:56:35;;;;;;;19.48;13.58;;;;;;;12.91;57.31;99471.88;1658285;84;21586;-73
2021/10/21 00:59:02;;;;;;;19.98;12.75;;;;;;;12.88;57.44;99463.80;1673285;85;21094;-71
2021/10/21 01:01:32;;;;;;;21.23;14.20;;;;;;;12.85;57.61;99461.65;1672932;85;21511;-74
2021/10/21 01:03:56;;;;;;;20.32;14.38;;;;;;;12.83;57.71;99458.94;1664145;85;21571;-70
2021/10/21 01:06:23;;;;;;;23.07;15.00;;;;;;;12.80;57.90;99454.09;1665118;85;21543;-67
2021/10/21 01:08:52;;;;;;;24.87;14.65;;;;;;;12.77;58.13;99462.17;1627939;87;21552;-68
2021/10/21 01:11:18;;;;;;;16.82;12.53;;;;;;;12.74;58.26;99451.92;1664760;86;21196;-68
2021/10/21 01:13:44;;;;;;;23.50;17.02;;;;;;;12.72;58.33;99456.77;1664928;86;21047;-67
2021/10/21 01:16:14;;;;;;;25.15;14.95;;;;;;;12.73;58.28;99453.53;1665047;85;21095;-68
2021/10/21 01:18:41;;;;;;;22.10;15.03;;;;;;;12.72;58.36;99460.81;1664753;85;21512;-67
2021/10/21 01:21:09;;;;;;;22.15;14.07;;;;;;;12.72;58.41;99454.61;1649716;85;21358;-66
2021/10/21 01:23:36;;;;;;;23.12;15.53;;;;;;;12.73;58.45;99448.13;1688576;83;21791;-67
2021/10/21 01:26:02;;;;;;;25.62;16.80;;;;;;;12.73;58.49;99448.95;1681447;84;21545;-67
2021/10/21 01:28:31;;;;;;;21.30;15.70;;;;;;;12.72;58.55;99445.16;1648930;86;21519;-67
2021/10/21 01:30:57;;;;;;;18.07;12.95;;;;;;;12.72;58.56;99445.97;1643325;87;21027;-68
2021/10/21 01:33:23;;;;;;;21.93;15.05;;;;;;;12.70;58.64;99448.15;1643524;87;21115;-67
2021/10/21 01:35:49;;;;;;;19.87;15.38;;;;;;;12.71;58.64;99447.05;1643395;87;21212;-68
2021/10/21 01:38:16;;;;;;;22.17;14.47;;;;;;;12.71;58.68;99439.52;1620996;87;21023;-67
2021/10/21 01:40:42;;;;;;;19.75;14.23;;;;;;;12.72;58.67;99436.53;1644383;86;21011;-69
2021/10/21 01:43:13;;;;;;;19.62;13.30;;;;;;;12.70;58.73;99437.36;1614405;87;21131;-70
2021/10/21 01:45:38;;;;;;;20.30;14.70;;;;;;;12.70;58.73;99437.89;1642202;86;21106;-70
2021/10/21 01:48:04;;;;;;;18.92;13.48;;;;;;;12.68;58.84;99434.11;1643287;87;21311;-70
2021/10/21 01:50:32;;;;;;;17.75;14.43;;;;;;;12.66;58.91;99438.41;1652958;85;21031;-70
2021/10/21 01:52:58;;;;;;;18.87;14.47;;;;;;;12.64;58.96;99428.45;1594138;88;21012;-69
2021/10/21 01:55:25;;;;;;;19.52;14.33;;;;;;;12.63;59.02;99422.77;1643387;86;21115;-70
2021/10/21 01:57:53;;;;;;;23.07;13.50;;;;;;;12.62;59.06;99421.69;1620934;87;21118;-71
2021/10/21 02:00:23;;;;;;;16.55;12.13;;;;;;;12.60;59.12;99421.97;1621251;86;21297;-71
2021/10/21 02:02:49;;;;;;;19.45;13.48;;;;;;;12.58;59.22;99413.86;1643441;87;21028;-71
2021/10/21 02:05:17;;;;;;;19.05;14.55;;;;;;;12.57;59.28;99415.75;1643280;87;21516;-70
2021/10/21 02:07:44;;;;;;;19.12;14.07;;;;;;;12.53;59.38;99413.33;1644790;86;21059;-70
2021/10/21 02:10:13;;;;;;;19.77;13.00;;;;;;;12.51;59.44;99417.38;1620668;87;21083;-69
2021/10/21 02:12:39;;;;;;;21.48;13.90;;;;;;;12.50;59.54;99419.27;1599506;87;21212;-73
2021/10/21 02:15:06;;;;;;;21.65;15.00;;;;;;;12.49;59.53;99408.73;1643663;86;21006;-70
2021/10/21 02:17:32;;;;;;;21.62;13.78;;;;;;;12.50;59.55;99415.76;1643302;87;21090;-70
2021/10/21 02:19:59;;;;;;;20.00;14.45;;;;;;;12.47;59.61;99405.52;1620973;87;21151;-70
2021/10/21 02:22:25;;;;;;;23.80;17.05;;;;;;;12.45;59.71;99413.05;1670435;85;21082;-70
2021/10/21 02:24:52;;;;;;;25.48;16.48;;;;;;;12.43;59.77;99411.15;1670285;86;21135;-70
2021/10/21 02:27:18;;;;;;;23.95;15.78;;;;;;;12.42;59.84;99410.34;1650650;85;21008;-71
2021/10/21 02:29:45;;;;;;;26.45;17.48;;;;;;;12.40;59.89;99403.61;1644071;86;20991;-71
2021/10/21 02:32:11;;;;;;;21.35;14.53;;;;;;;12.37;59.99;99409.02;1643502;87;21559;-70
2021/10/21 02:34:38;;;;;;;28.25;17.15;;;;;;;12.32;60.26;99394.71;1649356;86;21650;-71
2021/10/21 02:37:04;;;;;;;19.90;16.20;;;;;;;12.28;60.33;99392.28;1660180;85;21148;-72
2021/10/21 02:39:31;;;;;;;20.52;13.78;;;;;;;12.24;60.44;99396.03;1659675;86;20996;-72
2021/10/21 02:41:57;;;;;;;19.17;13.98;;;;;;;12.22;60.55;99383.37;1638967;86;21012;-72
2021/10/21 02:44:23;;;;;;;19.75;14.60;;;;;;;12.18;60.76;99387.12;1643435;87;21084;-70
2021/10/21 02:46:49;;;;;;;21.10;13.58;;;;;;;12.14;60.84;99390.63;1657085;86;21052;-70
2021/10/21 02:49:16;;;;;;;16.48;13.93;;;;;;;12.08;61.16;99384.97;1646303;86;22036;-71
2021/10/21 02:51:43;;;;;;;24.70;15.03;;;;;;;12.06;61.22;99392.50;1698468;84;20947;-70
2021/10/21 02:54:09;;;;;;;16.12;12.85;;;;;;;11.99;61.46;99389.27;1676240;84;21007;-70
2021/10/21 02:56:36;;;;;;;20.43;13.22;;;;;;;11.96;61.64;99372.27;1676209;84;21075;-70
2021/10/21 02:59:02;;;;;;;25.12;13.75;;;;;;;11.92;61.83;99379.27;1698529;84;21026;-69
2021/10/21 03:01:28;;;;;;;19.45;14.73;;;;;;;11.90;61.98;99367.39;1672791;84;21038;-71
2021/10/21 03:03:55;;;;;;;22.35;14.05;;;;;;;11.84;62.18;99361.74;1695839;84;21023;-72
2021/10/21 03:06:21;;;;;;;19.30;13.08;;;;;;;11.77;62.41;99355.25;1688537;84;20964;-70
2021/10/21 03:08:49;;;;;;;21.12;14.30;;;;;;;11.75;62.58;99362.78;1689001;84;21570;-70
2021/10/21 03:11:15;;;;;;;21.90;15.10;;;;;;;11.71;62.77;99350.08;1598184;88;21098;-72
2021/10/21 03:13:42;;;;;;;21.07;14.35;;;;;;;11.65;63.11;99357.89;1668673;86;22912;-70
2021/10/21 03:16:08;;;;;;;18.95;14.63;;;;;;;11.61;63.15;99368.89;1698483;84;21010;-71
2021/10/21 03:18:34;;;;;;;22.77;16.23;;;;;;;11.58;63.35;99360.01;1697952;84;21567;-71
2021/10/21 03:21:00;;;;;;;22.77;15.55;;;;;;;11.55;63.45;99361.36;1617611;87;21519;-72
2021/10/21 03:23:27;;;;;;;22.07;15.18;;;;;;;11.54;63.58;99355.69;1616615;86;21105;-75
2021/10/21 03:25:54;;;;;;;16.25;13.40;;;;;;;11.49;63.72;99357.55;1642886;87;21078;-72
2021/10/21 03:28:20;;;;;;;18.75;14.23;;;;;;;11.46;63.87;99354.87;1652072;86;21093;-71
2021/10/21 03:30:48;;;;;;;18.07;13.98;;;;;;;11.44;64.11;99369.65;1631267;88;21019;-72
2021/10/21 03:33:15;;;;;;;21.93;15.20;;;;;;;11.38;64.36;99362.08;1668918;84;21552;-75
2021/10/21 03:35:41;;;;;;;19.77;13.62;;;;;;;11.34;64.53;99348.34;1664741;84;21595;-73
2021/10/21 03:38:07;;;;;;;18.35;15.08;;;;;;;11.29;64.83;99344.81;1685810;84;21983;-71
2021/10/21 03:40:35;;;;;;;21.05;16.32;;;;;;;11.24;64.90;99342.09;1629643;88;20995;-70
2021/10/21 03:43:01;;;;;;;20.08;16.40;;;;;;;11.17;65.26;99345.05;1607355;88;21027;-73
2021/10/21 03:45:30;;;;;;;21.55;14.80;;;;;;;11.15;65.35;99344.48;1668869;84;21026;-72
2021/10/21 03:47:57;;;;;;;19.60;15.45;;;;;;;11.15;65.35;99346.36;1664137;84;21047;-76
2021/10/21 03:50:25;;;;;;;21.57;16.20;;;;;;;11.12;65.45;99332.09;1640687;86;21203;-71
2021/10/21 03:52:53;;;;;;;22.52;17.57;;;;;;;11.10;65.66;99328.31;1663749;84;20959;-73
2021/10/21 03:55:19;;;;;;;25.70;17.82;;;;;;;11.08;65.76;99333.13;1658891;86;20912;-73
2021/10/21 03:57:46;;;;;;;26.37;17.30;;;;;;;11.06;65.80;99331.26;1647426;84;21027;-72
2021/10/21 04:00:13;;;;;;;23.73;17.77;;;;;;;11.04;66.03;99320.46;1691131;84;21071;-74
2021/10/21 04:02:39;;;;;;;24.63;15.95;;;;;;;11.02;66.04;99321.28;1691120;84;21818;-74
2021/10/21 04:05:08;;;;;;;19.20;14.85;;;;;;;11.01;66.19;99316.96;1623156;87;21008;-72
2021/10/21 04:07:36;;;;;;;22.93;16.27;;;;;;;10.97;66.33;99319.91;1673021;84;20936;-73
2021/10/21 04:10:05;;;;;;;19.87;16.27;;;;;;;10.93;66.46;99317.72;1693219;84;22344;-71
2021/10/21 04:12:31;;;;;;;21.55;15.40;;;;;;;10.90;66.64;99316.91;1667905;84;21080;-72
2021/10/21 04:14:58;;;;;;;18.50;13.68;;;;;;;10.86;66.77;99306.39;1665069;85;21139;-72
2021/10/21 04:17:24;;;;;;;22.27;15.98;;;;;;;10.83;67.03;99302.89;1600000;88;21018;-70
2021/10/21 04:19:51;;;;;;;19.27;14.07;;;;;;;10.81;67.07;99296.95;1625318;87;20968;-73
2021/10/21 04:22:17;;;;;;;26.77;17.12;;;;;;;10.77;67.36;99288.32;1635166;86;21604;-71
2021/10/21 04:24:44;;;;;;;19.65;15.08;;;;;;;10.73;67.39;99292.07;1664921;86;21690;-70
2021/10/21 04:27:10;;;;;;;20.08;15.68;;;;;;;10.71;67.54;99295.55;1664693;86;21213;-70
2021/10/21 04:29:36;;;;;;;19.67;15.32;;;;;;;10.69;67.66;99288.29;1671157;84;21535;-73
2021/10/21 04:32:04;;;;;;;17.42;14.43;;;;;;;10.69;67.65;99292.86;1650256;86;21551;-74
2021/10/21 04:34:30;;;;;;;16.42;14.03;;;;;;;10.67;67.78;99289.08;1625921;87;21039;-71
2021/10/21 04:36:57;;;;;;;20.65;15.60;;;;;;;10.65;67.87;99284.47;1647283;87;21026;-71
2021/10/21 04:39:23;;;;;;;21.50;15.18;;;;;;;10.64;67.97;99292.29;1647246;86;21120;-71
2021/10/21 04:41:49;;;;;;;20.95;15.65;;;;;;;10.63;67.99;99285.28;1623852;87;21058;-70
2021/10/21 04:44:15;;;;;;;21.52;14.85;;;;;;;10.60;68.15;99281.75;1624070;87;21592;-72
2021/10/21 04:46:42;;;;;;;19.65;14.95;;;;;;;10.60;68.19;99291.16;1626116;87;21026;-75
2021/10/21 04:49:08;;;;;;;22.45;14.50;;;;;;;10.59;68.28;99283.38;1649194;87;21129;-70
2021/10/21 04:51:34;;;;;;;20.50;14.33;;;;;;;10.57;68.39;99290.35;1626215;87;21222;-70
2021/10/21 04:54:01;;;;;;;18.57;14.20;;;;;;;10.57;68.44;99289.00;1648820;87;20983;-71
2021/10/21 04:56:27;;;;;;;22.75;14.98;;;;;;;10.58;68.41;99295.20;1626179;87;21021;-71
2021/10/21 04:58:54;;;;;;;20.97;14.45;;;;;;;10.60;68.40;99289.03;1649459;85;21507;-72
2021/10/21 05:01:20;;;;;;;19.07;15.55;;;;;;;10.65;68.36;99298.45;1626158;87;21573;-70
2021/10/21 05:03:46;;;;;;;19.25;14.15;;;;;;;10.70;68.26;99298.48;1625895;87;21201;-71
2021/10/21 05:06:13;;;;;;;20.12;16.23;;;;;;;10.72;68.15;99299.86;1625469;87;20973;-74
2021/10/21 05:08:39;;;;;;;19.40;14.23;;;;;;;10.77;68.02;99305.27;1625128;87;21095;-74
2021/10/21 05:11:05;;;;;;;16.85;15.08;;;;;;;10.79;67.91;99301.77;1625614;87;21145;-70
2021/10/21 05:13:32;;;;;;;19.62;16.52;;;;;;;10.80;67.86;99300.70;1622546;87;21118;-70
2021/10/21 05:16:01;;;;;;;21.97;17.65;;;;;;;10.81;67.83;99317.66;1647172;87;21007;-72
2021/10/21 05:18:27;;;;;;;18.25;16.35;;;;;;;10.83;67.79;99320.91;1647285;87;21520;-71
2021/10/21 05:20:53;;;;;;;22.80;18.57;;;;;;;10.82;67.78;99322.79;1648178;85;21078;-69
2021/10/21 05:23:19;;;;;;;22.07;16.82;;;;;;;10.83;67.73;99308.27;1664447;85;21074;-69
2021/10/21 05:25:46;;;;;;;26.17;17.75;;;;;;;10.83;67.72;99306.11;1660476;85;21218;-70
2021/10/21 05:28:13;;;;;;;30.85;18.15;;;;;;;10.84;67.71;99321.16;1648717;87;21278;-70
2021/10/21 05:30:40;;;;;;;21.82;18.48;;;;;;;10.82;67.76;99313.38;1609339;87;21007;-69
2021/10/21 05:33:08;;;;;;;23.20;18.30;;;;;;;10.82;67.77;99311.22;1648027;87;21019;-71
2021/10/21 05:35:35;;;;;;;20.65;16.50;;;;;;;10.82;67.80;99312.03;1615162;87;21072;-82
2021/10/21 05:38:01;;;;;;;22.25;17.07;;;;;;;10.83;67.87;99314.19;1663615;86;21175;-73
2021/10/21 05:40:28;;;;;;;19.73;15.88;;;;;;;10.83;67.84;99306.93;1604561;88;21926;-71
2021/10/21 05:42:54;;;;;;;24.60;17.65;;;;;;;10.84;67.90;99305.02;1631379;87;21726;-75
2021/10/21 05:45:21;;;;;;;20.37;16.52;;;;;;;10.83;67.90;99314.19;1664626;84;21063;-73
2021/10/21 05:47:47;;;;;;;21.57;16.27;;;;;;;10.84;67.92;99305.83;1599934;88;21157;-72
2021/10/21 05:50:13;;;;;;;20.45;16.10;;;;;;;10.86;67.96;99308.27;1635286;87;21059;-73
2021/10/21 05:52:39;;;;;;;21.62;17.15;;;;;;;10.87;67.95;99317.44;1650658;87;21067;-72
2021/10/21 05:55:07;;;;;;;28.15;18.35;;;;;;;10.87;67.95;99303.98;1690770;84;21048;-72
2021/10/21 05:57:33;;;;;;;21.00;16.97;;;;;;;10.88;67.98;99303.45;1649787;86;20996;-74
2021/10/21 06:00:00;;;;;;;21.40;19.12;;;;;;;10.89;68.00;99303.70;1642489;86;21016;-73
2021/10/21 06:02:26;;;;;;;24.00;18.37;;;;;;;10.88;68.14;99317.72;1664750;85;21100;-72
2021/10/21 06:04:52;;;;;;;25.25;18.52;;;;;;;10.89;68.10;99314.47;1650223;84;21060;-81
2021/10/21 06:07:19;;;;;;;19.52;17.25;;;;;;;10.92;68.00;99307.23;1674919;85;21016;-72
2021/10/21 06:09:45;;;;;;;25.17;18.32;;;;;;;10.95;67.95;99318.81;1650639;86;21023;-73
2021/10/21 06:12:13;;;;;;;21.93;18.15;;;;;;;10.99;67.86;99322.59;1666339;84;21000;-73
2021/10/21 06:14:39;;;;;;;29.18;19.20;;;;;;;11.02;67.76;99311.86;1664579;86;21580;-74
2021/10/21 06:17:09;;;;;;;21.33;17.50;;;;;;;11.05;67.69;99314.83;1664429;85;21320;-73
2021/10/21 06:19:35;;;;;;;27.35;16.67;;;;;;;11.08;67.51;99316.20;1664530;85;21032;-71
2021/10/21 06:22:08;;;;;;;23.10;18.30;;;;;;;11.12;67.36;99318.64;1674898;85;21055;-73
2021/10/21 06:24:30;;;;;;;21.82;18.48;;;;;;;11.14;67.31;99323.20;1689620;84;21499;-74
2021/10/21 06:26:57;;;;;;;18.55;16.60;;;;;;;11.16;67.26;99312.47;1693324;84;21558;-74
2021/10/21 06:29:23;;;;;;;24.00;19.35;;;;;;;11.20;67.17;99312.75;1637472;86;21086;-73
2021/10/21 06:31:50;;;;;;;20.62;16.55;;;;;;;11.24;66.94;99315.18;1648922;86;21013;-70
2021/10/21 06:34:17;;;;;;;20.97;17.10;;;;;;;11.28;66.84;99309.00;1634951;86;21028;-70
2021/10/21 06:36:43;;;;;;;22.20;16.75;;;;;;;11.32;66.77;99298.51;1664406;85;21024;-71
2021/10/21 06:39:10;;;;;;;23.15;18.15;;;;;;;11.37;66.63;99302.56;1665019;84;21010;-71
2021/10/21 06:41:37;;;;;;;17.37;15.03;;;;;;;11.41;66.48;99298.30;1685314;84;22943;-70
2021/10/21 06:44:05;;;;;;;24.37;18.10;;;;;;;11.48;66.34;99296.68;1683194;85;21584;-72
2021/10/21 06:46:33;;;;;;;20.57;18.05;;;;;;;11.55;66.04;99301.30;1683604;85;20976;-71
2021/10/21 06:49:00;;;;;;;19.17;16.07;;;;;;;11.63;65.73;99304.80;1683492;85;21808;-76
2021/10/21 06:51:27;;;;;;;18.98;16.17;;;;;;;11.70;65.38;99289.21;1683479;85;21091;-70
2021/10/21 06:53:55;;;;;;;17.30;15.58;;;;;;;11.78;64.85;99305.69;1683412;85;21208;-70
2021/10/21 06:56:22;;;;;;;21.23;17.92;;;;;;;11.85;64.49;99294.63;1652170;86;30170;-71
2021/10/21 06:58:49;;;;;;;22.25;16.23;;;;;;;11.92;64.37;99282.25;1688273;84;21015;-71
2021/10/21 07:01:15;;;;;;;18.87;16.23;;;;;;;12.01;64.02;99293.58;1669361;84;21066;-73
2021/10/21 07:03:42;;;;;;;19.20;16.97;;;;;;;12.08;63.78;99274.45;1664778;85;21067;-71
2021/10/21 07:06:08;;;;;;;19.25;16.32;;;;;;;12.15;63.61;99284.41;1651857;85;21916;-68
2021/10/21 07:08:35;;;;;;;19.77;16.50;;;;;;;12.24;63.35;99288.18;1659944;85;21547;-69
2021/10/21 07:11:03;;;;;;;20.97;16.15;;;;;;;12.33;63.04;99286.55;1659978;85;21343;-69
2021/10/21 07:13:30;;;;;;;19.23;15.60;;;;;;;12.41;62.71;99281.17;1665767;84;21068;-74
2021/10/21 07:15:56;;;;;;;22.77;16.67;;;;;;;12.47;62.26;99286.84;1669074;84;21269;-69
2021/10/21 07:18:23;;;;;;;20.05;16.40;;;;;;;12.54;61.90;99286.81;1670044;84;22258;-70
2021/10/21 07:20:49;;;;;;;17.92;16.02;;;;;;;12.60;61.93;99278.98;1664329;85;20961;-73
2021/10/21 07:23:15;;;;;;;18.37;15.55;;;;;;;12.67;61.65;99282.73;1664554;85;21020;-71
2021/10/21 07:25:42;;;;;;;20.92;16.10;;;;;;;12.74;61.55;99280.57;1649121;86;21024;-74
2021/10/21 07:28:08;;;;;;;17.40;13.25;;;;;;;12.83;60.96;99282.16;1649035;86;21055;-71
2021/10/21 07:30:35;;;;;;;24.40;14.20;;;;;;;12.89;60.17;99282.42;1652848;85;22032;-71
2021/10/21 07:33:02;;;;;;;18.05;14.75;;;;;;;12.97;59.96;99288.05;1643391;87;21063;-71
2021/10/21 07:35:31;;;;;;;18.50;13.98;;;;;;;13.02;59.87;99270.49;1620923;87;21018;-73
2021/10/21 07:38:01;;;;;;;21.02;15.10;;;;;;;13.08;59.52;99259.13;1643891;87;21547;-73
2021/10/21 07:40:29;;;;;;;20.57;14.53;;;;;;;13.15;59.31;99258.84;1620873;87;21054;-73
2021/10/21 07:42:55;;;;;;;22.67;14.40;;;;;;;13.23;59.37;99256.41;1648585;86;22035;-75
2021/10/21 07:45:22;;;;;;;16.65;13.72;;;;;;;13.31;59.15;99255.00;1665125;86;21561;-74
2021/10/21 07:47:48;;;;;;;20.00;14.65;;;;;;;13.40;58.91;99251.44;1646086;86;21531;-75
2021/10/21 07:50:17;;;;;;;18.42;15.05;;;;;;;13.50;58.73;99243.81;1643510;87;21062;-74
2021/10/21 07:52:45;;;;;;;18.67;14.20;;;;;;;13.58;58.14;99243.75;1643852;87;21051;-74
2021/10/21 07:55:11;;;;;;;15.80;14.13;;;;;;;13.65;57.95;99247.77;1643442;87;21338;-76
2021/10/21 07:57:38;;;;;;;16.12;13.70;;;;;;;13.70;57.62;99236.93;1622396;87;21023;-76
2021/10/21 08:00:05;;;;;;;15.32;13.70;;;;;;;13.75;57.67;99239.59;1662298;86;21609;-78
2021/10/21 08:02:33;;;;;;;18.45;14.15;;;;;;;13.83;57.19;99240.34;1669586;85;21067;-76
2021/10/21 08:05:00;;;;;;;18.15;16.20;;;;;;;13.87;57.29;99237.33;1649174;86;21050;-83
2021/10/21 08:07:26;;;;;;;21.90;14.47;;;;;;;13.92;57.24;99231.08;1642350;86;21106;-72
2021/10/21 08:09:53;;;;;;;21.05;13.88;;;;;;;13.96;56.96;99246.98;1643472;87;21556;-71
2021/10/21 08:12:19;;;;;;;18.60;14.60;;;;;;;13.98;56.57;99239.42;1620885;87;21043;-74
2021/10/21 08:14:46;;;;;;;19.10;15.15;;;;;;;13.97;56.54;99230.50;1652678;86;21604;-71
2021/10/21 08:17:14;;;;;;;17.35;13.08;;;;;;;14.02;56.65;99229.64;1648828;86;21436;-75
2021/10/21 08:19:40;;;;;;;22.55;16.82;;;;;;;14.07;56.36;99230.14;1671616;84;21777;-72
2021/10/21 08:22:06;;;;;;;16.95;12.82;;;;;;;14.09;56.37;99217.16;1698494;84;21531;-72
2021/10/21 08:24:33;;;;;;;15.58;13.98;;;;;;;14.14;56.48;99207.65;1681874;84;20988;-72
2021/10/21 08:26:59;;;;;;;17.92;14.43;;;;;;;14.17;56.43;99194.36;1658247;85;21099;-72
2021/10/21 08:29:25;;;;;;;19.50;13.75;;;;;;;14.20;56.29;99195.13;1671489;85;21542;-73
2021/10/21 08:32:01;;;;;;;17.52;14.90;;;;;;;14.25;56.23;99192.37;1625695;87;21158;-71
2021/10/21 08:34:22;;;;;;;15.80;12.63;;;;;;;14.26;56.02;99199.40;1633627;86;21565;-72
2021/10/21 08:36:50;;;;;;;23.22;14.20;;;;;;;14.28;55.96;99190.47;1669868;84;21018;-70
2021/10/21 08:39:17;;;;;;;17.60;14.18;;;;;;;14.27;55.88;99186.69;1651865;85;21134;-71
2021/10/21 08:41:46;;;;;;;17.60;14.35;;;;;;;14.30;56.05;99184.75;1629961;88;21083;-73
2021/10/21 08:44:12;;;;;;;17.10;13.75;;;;;;;14.32;56.30;99187.98;1662405;86;21574;-72
2021/10/21 08:46:39;;;;;;;16.70;14.87;;;;;;;14.32;56.37;99181.23;1644952;86;21039;-71
2021/10/21 08:49:06;;;;;;;17.32;14.90;;;;;;;14.30;56.42;99185.56;1625771;87;20960;-75
2021/10/21 08:51:34;;;;;;;16.05;13.32;;;;;;;14.33;56.33;99182.30;1644905;86;21017;-76
2021/10/21 08:54:02;;;;;;;14.70;13.10;;;;;;;14.36;56.40;99179.59;1668046;84;21044;-74
2021/10/21 08:56:29;;;;;;;21.70;14.90;;;;;;;14.30;56.84;99172.03;1631237;86;21906;-71
2021/10/21 08:58:55;;;;;;;16.65;14.05;;;;;;;14.25;57.25;99174.80;1662440;84;21039;-68
2021/10/21 09:01:36;;;;;;;18.17;16.10;;;;;;;14.20;57.39;99165.38;1663697;85;21049;-71
2021/10/21 09:04:04;;;;;;;18.32;14.85;;;;;;;14.20;57.44;99160.51;1667060;85;21626;-69
2021/10/21 09:06:50;;;;;;;25.92;15.30;;;;;;;14.27;57.49;99167.75;1665069;85;22208;-68
2021/10/21 09:09:03;;;;;;;19.00;14.60;;;;;;;14.32;57.34;99160.39;1660653;86;21142;-69
2021/10/21 09:11:29;;;;;;;19.87;14.23;;;;;;;14.40;57.27;99153.02;1645390;86;21063;-74
2021/10/21 09:14:10;;;;;;;18.57;14.87;;;;;;;14.52;56.97;99141.00;1672184;84;21066;-77
2021/10/21 09:16:40;;;;;;;17.73;15.05;;;;;;;14.61;56.58;99153.59;1660835;86;21079;-82
2021/10/21 09:19:10;;;;;;;20.90;17.00;;;;;;;14.71;55.89;99143.20;1647662;86;21012;-80
2021/10/21 09:21:40;;;;;;;14.93;13.22;;;;;;;14.78;55.62;99135.51;1631107;86;21112;-78
2021/10/21 09:24:30;;;;;;;21.50;16.87;;;;;;;14.86;55.35;99121.34;1661994;84;21537;-77
2021/10/21 09:27:14;;;;;;;18.27;12.80;;;;;;;14.93;55.33;99119.06;1604187;88;21538;-80
2021/10/21 09:29:52;;;;;;;20.02;14.30;;;;;;;15.04;55.09;99117.02;1622118;87;21076;-77
2021/10/21 09:32:27;;;;;;;18.02;14.05;;;;;;;15.14;54.84;99107.40;1678115;85;21066;-75
2021/10/21 09:34:59;;;;;;;15.40;12.50;;;;;;;15.24;54.23;99110.77;1641961;86;21115;-76
2021/10/21 09:37:32;;;;;;;14.70;12.88;;;;;;;15.36;53.53;99106.23;1672079;85;21532;-76
2021/10/21 09:40:02;;;;;;;15.57;13.57;;;;;;;15.53;52.98;99090.28;1644543;87;21453;-77
2021/10/21 09:42:41;;;;;;;13.50;11.78;;;;;;;15.53;52.98;99090.28;1643354;87;21656;-75
2021/10/21 09:45:27;;;;;;;14.63;12.90;;;;;;;15.67;53.17;99081.63;1643199;87;21107;-75
2021/10/21 09:47:57;;;;;;;19.62;13.35;;;;;;;15.85;52.69;99087.28;1619975;87;21350;-73
2021/10/21 09:50:42;;;;;;;18.50;13.28;;;;;;;16.00;52.23;99082.38;1620544;87;21245;-72
2021/10/21 09:53:22;;;;;;;21.75;12.53;;;;;;;16.12;52.00;99093.53;1642672;87;21551;-71
2021/10/21 09:56:02;;;;;;;19.80;13.00;;;;;;;16.23;51.17;99077.06;1643599;86;20964;-79
2021/10/21 09:58:39;;;;;;;21.52;12.90;;;;;;;16.31;50.94;99073.08;1605039;87;21088;-84
2021/10/21 10:01:12;;;;;;;15.48;12.82;;;;;;;16.40;50.96;99065.83;1623908;87;21660;-80
2021/10/21 10:03:42;;;;;;;20.23;13.60;;;;;;;16.50;50.41;99060.19;1644431;86;21087;-70
2021/10/21 10:06:11;;;;;;;11.60;10.50;;;;;;;16.55;49.94;99062.80;1614840;87;21034;-71
2021/10/21 10:08:38;;;;;;;13.20;11.68;;;;;;;16.59;49.43;99045.95;1650472;86;21544;-74
2021/10/21 10:11:11;;;;;;;16.97;11.85;;;;;;;16.62;49.27;99055.64;1671996;85;20988;-73
2021/10/21 10:13:44;;;;;;;14.87;12.05;;;;;;;16.66;49.19;99040.34;1621739;87;21523;-75
2021/10/21 10:16:10;;;;;;;13.72;11.45;;;;;;;16.72;48.96;99033.70;1636097;86;20971;-75
2021/10/21 10:18:42;;;;;;;13.50;10.88;;;;;;;16.77;49.00;99034.95;1659607;85;21571;-76
2021/10/21 10:21:13;;;;;;;18.32;11.70;;;;;;;16.84;48.94;99033.95;1670893;85;21059;-72
2021/10/21 10:23:52;;;;;;;22.37;12.10;;;;;;;16.87;48.96;99031.19;1619569;87;21059;-73
2021/10/21 10:26:53;;;;;;;13.83;11.35;;;;;;;16.91;48.75;99022.12;1643064;87;21166;-74
2021/10/21 10:29:43;;;;;;;15.43;11.03;;;;;;;17.02;48.67;99025.41;1647943;86;21008;-73
2021/10/21 10:32:43;;;;;;;22.52;11.85;;;;;;;17.09;48.43;99012.73;1619457;87;21111;-71
2021/10/21 10:35:31;;;;;;;17.10;11.55;;;;;;;17.15;47.94;99005.52;1589376;88;21044;-69
2021/10/21 10:38:02;;;;;;;12.05;10.78;;;;;;;17.24;47.66;98996.05;1658007;85;21036;-73
2021/10/21 10:40:42;;;;;;;13.03;11.00;;;;;;;17.31;47.60;98992.35;1620251;87;21759;-72
2021/10/21 10:43:11;;;;;;;14.47;12.35;;;;;;;17.41;47.27;98992.87;1643012;87;21051;-73
2021/10/21 10:45:51;;;;;;;13.62;10.43;;;;;;;17.55;47.02;98991.45;1643311;87;21544;-76
2021/10/21 10:48:48;;;;;;;13.88;11.28;;;;;;;17.68;46.82;98981.61;1611363;86;21102;-75
2021/10/21 10:51:15;;;;;;;15.25;12.25;;;;;;;17.80;46.75;98963.56;1638182;86;21114;-75
2021/10/21 10:53:42;;;;;;;22.67;12.90;;;;;;;17.92;46.63;98958.89;1658681;86;21138;-75
2021/10/21 10:56:08;;;;;;;15.65;13.20;;;;;;;18.03;46.54;98956.14;1644417;86;21646;-72
2021/10/21 10:58:35;;;;;;;20.72;12.65;;;;;;;18.14;46.32;98964.78;1621252;86;21089;-73
2021/10/21 11:01:01;;;;;;;19.17;12.20;;;;;;;18.21;45.94;98947.44;1646493;86;21531;-73
2021/10/21 11:03:41;;;;;;;14.03;11.15;;;;;;;18.17;45.91;98950.00;1630957;87;21119;-69
2021/10/21 11:06:16;;;;;;;20.08;12.15;;;;;;;18.10;46.19;98948.84;1643520;86;21276;-76
2021/10/21 11:09:07;;;;;;;18.05;12.63;;;;;;;17.98;46.47;98948.12;1636011;86;21015;-74
2021/10/21 11:11:55;;;;;;;16.30;11.28;;;;;;;17.91;46.48;98949.13;1694124;84;20971;-74
2021/10/21 11:14:39;;;;;;;21.95;13.88;;;;;;;17.82;46.82;98938.22;1677432;85;21000;-72
2021/10/21 11:17:09;;;;;;;12.45;10.80;;;;;;;17.72;47.13;98937.70;1684635;84;21531;-71
2021/10/21 11:19:48;;;;;;;21.55;14.47;;;;;;;17.68;47.21;98944.34;1694478;84;21140;-70
2021/10/21 11:22:24;;;;;;;16.27;13.90;;;;;;;17.74;47.30;98940.38;1688946;85;20999;-75